Hill City, Kansas
Current Conditions -  °F | °C
As of 12:53 PM on Tuesday 27 Jan 2015 (Local Time) from KHLC Reporting Station
Clear Clear  
Wind Chill: 75°   Ceiling: Unl
Heat Index: 75°   Visibility: 10mi
Dew Point: 28°   Wind: 9mph
Humidity: 18%   Direction: 260°W
Pressure: 30.01"   Gusts: NA
Location:  39.36°N, 99.84°W
Report Text: KHLC 271853Z AUTO 26008KT 10SM CLR 24/M02 A3001 RMK AO2 SLP154 T02391022
Loading
Personal Weather Stations






























Interactive Weather Map New forecast layout! Learn more

10-Day Weather Forecast

Advertisements
Track Severe Weather on mobile